Главная страница
METAR-TAF:

METAR-TAF

Аэропорты :

Зонгулдак, Турция

широта: 41-27N, долгота: 031-48E, высота над уровнем моря: 136 м

Текущие метеонаблюдения

Эта сводка был подготовлена 34 минут назад, в 09:50 UTC
Ветер 12 Узел от западный
Температура 12°C
Влажность 67%
Давление 1020 hPa
Видимость 10 км и более
небольшая облачность на высоте 3500 фута

METAR: LTAS 230950Z 28012KT 9999 FEW035 12/06 Q1020

Время: 13:24 (10:24 UTC)

Прогноз

Эта сводка был подготовлена 2 часа и 44 минут назад, в 07:40 UTC
Прогноз действительный с 23-го 09 UTC до 23-го 18 UTC
Ветер 2 Узел переменных направлений
Видимость 10 км и более
Нет облачности ниже 1500 м, и нет кучево-дождевой облачности

TAF: LTAS 230740Z 2309/2318 VRB02KT CAVOK

Метеонаблюдения и прогнозы для более 4000 аэропортов (сводки METAR и TAF).

Имеющиеся станции представлены на карте желтыми и красными точками.

Чтобы увидеть название станции, наведите на нее мышь.

Затем щелкните, чтобы увидеть метеонаблюдения и метеопрогнозы.

Управление картой: чтобы увеличить масштаб, щелкните зеленые кнопки с черным крестиком; чтобы уменьшить масштаб, щелкните зеленую кнопку с тире; для просмотра соседних карт щелкайте зеленые стрелки.


METAR-TAF: